sensor_id;sensor_type;location;lat;lon;timestamp;P1;durP1;ratioP1;P2;durP2;ratioP2
8871;SDS011;4472;52.092;9.820;2023-01-30T00:02:18;19.43;;;12.73;;
8871;SDS011;4472;52.092;9.820;2023-01-30T00:05:06;22.83;;;14.07;;
8871;SDS011;4472;52.092;9.820;2023-01-30T00:07:53;20.47;;;12.87;;
8871;SDS011;4472;52.092;9.820;2023-01-30T00:10:42;20.87;;;13.73;;
8871;SDS011;4472;52.092;9.820;2023-01-30T00:13:30;21.80;;;13.13;;
8871;SDS011;4472;52.092;9.820;2023-01-30T00:16:17;22.63;;;14.47;;
8871;SDS011;4472;52.092;9.820;2023-01-30T00:19:04;21.73;;;13.33;;
8871;SDS011;4472;52.092;9.820;2023-01-30T00:21:51;21.03;;;13.07;;
8871;SDS011;4472;52.092;9.820;2023-01-30T00:24:38;20.70;;;12.70;;
8871;SDS011;4472;52.092;9.820;2023-01-30T00:27:27;23.17;;;14.23;;
8871;SDS011;4472;52.092;9.820;2023-01-30T00:30:15;19.67;;;12.23;;
8871;SDS011;4472;52.092;9.820;2023-01-30T00:33:03;18.47;;;12.10;;
8871;SDS011;4472;52.092;9.820;2023-01-30T00:35:50;22.20;;;14.13;;
8871;SDS011;4472;52.092;9.820;2023-01-30T00:38:38;19.30;;;13.07;;
8871;SDS011;4472;52.092;9.820;2023-01-30T00:41:26;21.97;;;13.90;;
8871;SDS011;4472;52.092;9.820;2023-01-30T00:44:34;20.90;;;13.70;;
8871;SDS011;4472;52.092;9.820;2023-01-30T00:47:39;21.83;;;13.07;;
8871;SDS011;4472;52.092;9.820;2023-01-30T00:50:27;22.07;;;13.80;;
8871;SDS011;4472;52.092;9.820;2023-01-30T00:53:26;19.67;;;12.37;;
8871;SDS011;4472;52.092;9.820;2023-01-30T00:56:14;23.20;;;14.53;;
8871;SDS011;4472;52.092;9.820;2023-01-30T00:59:01;22.53;;;15.10;;
8871;SDS011;4472;52.092;9.820;2023-01-30T01:01:49;26.83;;;14.80;;
8871;SDS011;4472;52.092;9.820;2023-01-30T01:04:37;24.23;;;15.33;;
8871;SDS011;4472;52.092;9.820;2023-01-30T01:07:27;21.93;;;14.60;;
8871;SDS011;4472;52.092;9.820;2023-01-30T01:10:15;23.23;;;14.70;;
8871;SDS011;4472;52.092;9.820;2023-01-30T01:13:02;24.23;;;13.60;;
8871;SDS011;4472;52.092;9.820;2023-01-30T01:15:51;25.10;;;14.63;;
8871;SDS011;4472;52.092;9.820;2023-01-30T01:18:39;25.07;;;15.40;;
8871;SDS011;4472;52.092;9.820;2023-01-30T01:21:27;28.77;;;16.00;;
8871;SDS011;4472;52.092;9.820;2023-01-30T01:24:14;25.27;;;15.80;;
8871;SDS011;4472;52.092;9.820;2023-01-30T01:27:02;27.10;;;16.30;;
8871;SDS011;4472;52.092;9.820;2023-01-30T01:29:49;23.10;;;14.23;;
8871;SDS011;4472;52.092;9.820;2023-01-30T01:32:36;25.77;;;15.00;;
8871;SDS011;4472;52.092;9.820;2023-01-30T01:35:25;26.83;;;15.10;;
8871;SDS011;4472;52.092;9.820;2023-01-30T01:38:12;24.23;;;15.00;;
8871;SDS011;4472;52.092;9.820;2023-01-30T01:40:59;22.33;;;14.30;;
8871;SDS011;4472;52.092;9.820;2023-01-30T01:43:58;23.40;;;15.07;;
8871;SDS011;4472;52.092;9.820;2023-01-30T01:46:47;23.57;;;13.60;;
8871;SDS011;4472;52.092;9.820;2023-01-30T01:49:39;27.37;;;16.83;;
8871;SDS011;4472;52.092;9.820;2023-01-30T01:52:28;24.63;;;16.27;;
8871;SDS011;4472;52.092;9.820;2023-01-30T01:55:16;26.63;;;15.90;;
8871;SDS011;4472;52.092;9.820;2023-01-30T01:58:05;28.20;;;17.17;;
8871;SDS011;4472;52.092;9.820;2023-01-30T02:00:57;28.43;;;16.93;;
8871;SDS011;4472;52.092;9.820;2023-01-30T02:03:46;29.93;;;16.70;;
8871;SDS011;4472;52.092;9.820;2023-01-30T02:06:38;27.50;;;16.43;;
8871;SDS011;4472;52.092;9.820;2023-01-30T02:09:29;27.80;;;17.10;;
8871;SDS011;4472;52.092;9.820;2023-01-30T02:12:17;30.07;;;17.67;;
8871;SDS011;4472;52.092;9.820;2023-01-30T02:15:04;26.13;;;15.73;;
8871;SDS011;4472;52.092;9.820;2023-01-30T02:17:52;27.97;;;16.47;;
8871;SDS011;4472;52.092;9.820;2023-01-30T02:20:45;25.77;;;15.97;;
8871;SDS011;4472;52.092;9.820;2023-01-30T02:24:12;25.40;;;15.17;;
8871;SDS011;4472;52.092;9.820;2023-01-30T02:27:22;23.17;;;13.77;;
8871;SDS011;4472;52.092;9.820;2023-01-30T02:30:44;25.67;;;14.90;;
8871;SDS011;4472;52.092;9.820;2023-01-30T02:33:55;24.90;;;16.27;;
8871;SDS011;4472;52.092;9.820;2023-01-30T02:36:53;30.50;;;15.90;;
8871;SDS011;4472;52.092;9.820;2023-01-30T02:39:55;24.07;;;15.40;;
8871;SDS011;4472;52.092;9.820;2023-01-30T02:43:03;24.17;;;14.63;;
8871;SDS011;4472;52.092;9.820;2023-01-30T02:46:00;25.37;;;16.47;;
8871;SDS011;4472;52.092;9.820;2023-01-30T02:48:53;26.63;;;16.10;;
8871;SDS011;4472;52.092;9.820;2023-01-30T02:51:46;25.07;;;16.23;;
8871;SDS011;4472;52.092;9.820;2023-01-30T02:54:36;24.00;;;15.83;;
8871;SDS011;4472;52.092;9.820;2023-01-30T02:57:24;24.67;;;15.10;;
8871;SDS011;4472;52.092;9.820;2023-01-30T03:00:11;21.70;;;13.17;;
8871;SDS011;4472;52.092;9.820;2023-01-30T03:03:08;25.00;;;14.83;;
8871;SDS011;4472;52.092;9.820;2023-01-30T03:06:26;21.37;;;13.63;;
8871;SDS011;4472;52.092;9.820;2023-01-30T03:09:29;24.20;;;14.40;;
8871;SDS011;4472;52.092;9.820;2023-01-30T03:12:27;21.77;;;13.43;;
8871;SDS011;4472;52.092;9.820;2023-01-30T03:15:27;20.80;;;13.57;;
8871;SDS011;4472;52.092;9.820;2023-01-30T03:18:20;22.23;;;14.70;;
8871;SDS011;4472;52.092;9.820;2023-01-30T03:21:08;25.73;;;14.87;;
8871;SDS011;4472;52.092;9.820;2023-01-30T03:23:56;26.03;;;15.10;;
8871;SDS011;4472;52.092;9.820;2023-01-30T03:26:44;27.17;;;15.50;;
8871;SDS011;4472;52.092;9.820;2023-01-30T03:29:34;24.43;;;15.13;;
8871;SDS011;4472;52.092;9.820;2023-01-30T03:32:21;25.37;;;15.00;;
8871;SDS011;4472;52.092;9.820;2023-01-30T03:35:10;27.43;;;15.27;;
8871;SDS011;4472;52.092;9.820;2023-01-30T03:37:57;25.50;;;14.90;;
8871;SDS011;4472;52.092;9.820;2023-01-30T03:40:45;24.67;;;15.57;;
8871;SDS011;4472;52.092;9.820;2023-01-30T03:43:32;24.07;;;15.47;;
8871;SDS011;4472;52.092;9.820;2023-01-30T03:46:19;25.17;;;14.83;;
8871;SDS011;4472;52.092;9.820;2023-01-30T03:49:06;25.97;;;14.73;;
8871;SDS011;4472;52.092;9.820;2023-01-30T03:51:55;27.87;;;16.43;;
8871;SDS011;4472;52.092;9.820;2023-01-30T03:54:42;25.43;;;14.97;;
8871;SDS011;4472;52.092;9.820;2023-01-30T03:57:29;31.13;;;17.50;;
8871;SDS011;4472;52.092;9.820;2023-01-30T04:00:17;26.60;;;15.10;;
8871;SDS011;4472;52.092;9.820;2023-01-30T04:03:05;24.33;;;13.57;;
8871;SDS011;4472;52.092;9.820;2023-01-30T04:05:52;22.10;;;13.33;;
8871;SDS011;4472;52.092;9.820;2023-01-30T04:08:41;24.33;;;13.53;;
8871;SDS011;4472;52.092;9.820;2023-01-30T04:11:28;25.00;;;13.30;;
8871;SDS011;4472;52.092;9.820;2023-01-30T04:14:15;20.27;;;13.33;;
8871;SDS011;4472;52.092;9.820;2023-01-30T04:17:03;20.27;;;12.77;;
8871;SDS011;4472;52.092;9.820;2023-01-30T04:19:50;22.03;;;12.33;;
8871;SDS011;4472;52.092;9.820;2023-01-30T04:22:38;21.80;;;12.80;;
8871;SDS011;4472;52.092;9.820;2023-01-30T04:25:26;22.83;;;13.13;;
8871;SDS011;4472;52.092;9.820;2023-01-30T04:28:13;21.07;;;13.60;;
8871;SDS011;4472;52.092;9.820;2023-01-30T04:31:01;21.30;;;12.30;;
8871;SDS011;4472;52.092;9.820;2023-01-30T04:33:48;16.30;;;11.13;;
8871;SDS011;4472;52.092;9.820;2023-01-30T04:36:35;15.67;;;10.63;;
8871;SDS011;4472;52.092;9.820;2023-01-30T04:39:23;13.50;;;9.83;;
8871;SDS011;4472;52.092;9.820;2023-01-30T04:42:11;15.00;;;10.70;;
8871;SDS011;4472;52.092;9.820;2023-01-30T04:44:58;15.53;;;10.60;;
8871;SDS011;4472;52.092;9.820;2023-01-30T04:47:45;14.17;;;9.37;;
8871;SDS011;4472;52.092;9.820;2023-01-30T04:50:33;16.83;;;11.17;;
8871;SDS011;4472;52.092;9.820;2023-01-30T04:53:20;13.50;;;9.47;;
8871;SDS011;4472;52.092;9.820;2023-01-30T04:56:07;13.97;;;9.23;;
8871;SDS011;4472;52.092;9.820;2023-01-30T04:58:56;12.80;;;9.07;;
8871;SDS011;4472;52.092;9.820;2023-01-30T05:01:43;14.50;;;8.97;;
8871;SDS011;4472;52.092;9.820;2023-01-30T05:04:30;11.17;;;8.03;;
8871;SDS011;4472;52.092;9.820;2023-01-30T05:07:17;12.93;;;8.43;;
8871;SDS011;4472;52.092;9.820;2023-01-30T05:10:05;12.13;;;8.30;;
8871;SDS011;4472;52.092;9.820;2023-01-30T05:12:53;12.80;;;8.50;;
8871;SDS011;4472;52.092;9.820;2023-01-30T05:15:43;12.03;;;8.10;;
8871;SDS011;4472;52.092;9.820;2023-01-30T05:18:30;13.20;;;8.60;;
8871;SDS011;4472;52.092;9.820;2023-01-30T05:21:19;11.53;;;8.07;;
8871;SDS011;4472;52.092;9.820;2023-01-30T05:24:08;13.57;;;8.50;;
8871;SDS011;4472;52.092;9.820;2023-01-30T05:26:55;11.43;;;8.53;;
8871;SDS011;4472;52.092;9.820;2023-01-30T05:29:42;11.33;;;8.50;;
8871;SDS011;4472;52.092;9.820;2023-01-30T05:32:31;10.80;;;7.70;;
8871;SDS011;4472;52.092;9.820;2023-01-30T05:35:19;12.90;;;8.90;;
8871;SDS011;4472;52.092;9.820;2023-01-30T05:38:06;11.47;;;7.97;;
8871;SDS011;4472;52.092;9.820;2023-01-30T05:40:59;12.40;;;8.13;;
8871;SDS011;4472;52.092;9.820;2023-01-30T05:43:47;10.03;;;7.83;;
8871;SDS011;4472;52.092;9.820;2023-01-30T05:46:35;9.20;;;7.30;;
8871;SDS011;4472;52.092;9.820;2023-01-30T05:49:24;10.70;;;7.80;;
8871;SDS011;4472;52.092;9.820;2023-01-30T05:52:11;9.10;;;7.50;;
8871;SDS011;4472;52.092;9.820;2023-01-30T05:55:01;9.50;;;6.57;;
8871;SDS011;4472;52.092;9.820;2023-01-30T05:57:48;11.47;;;8.40;;
8871;SDS011;4472;52.092;9.820;2023-01-30T06:00:35;10.47;;;8.17;;
8871;SDS011;4472;52.092;9.820;2023-01-30T06:03:23;9.20;;;7.70;;
8871;SDS011;4472;52.092;9.820;2023-01-30T06:06:11;10.33;;;8.53;;
8871;SDS011;4472;52.092;9.820;2023-01-30T06:08:58;9.40;;;7.20;;
8871;SDS011;4472;52.092;9.820;2023-01-30T06:11:46;9.57;;;7.80;;
8871;SDS011;4472;52.092;9.820;2023-01-30T06:14:33;10.20;;;8.13;;
8871;SDS011;4472;52.092;9.820;2023-01-30T06:17:20;10.47;;;7.47;;
8871;SDS011;4472;52.092;9.820;2023-01-30T06:20:08;17.87;;;9.13;;
8871;SDS011;4472;52.092;9.820;2023-01-30T06:22:57;10.43;;;7.67;;
8871;SDS011;4472;52.092;9.820;2023-01-30T06:25:45;10.67;;;7.43;;
8871;SDS011;4472;52.092;9.820;2023-01-30T06:28:33;9.27;;;6.80;;
8871;SDS011;4472;52.092;9.820;2023-01-30T06:31:20;7.80;;;6.10;;
8871;SDS011;4472;52.092;9.820;2023-01-30T06:34:09;9.07;;;6.17;;
8871;SDS011;4472;52.092;9.820;2023-01-30T06:36:56;8.77;;;6.00;;
8871;SDS011;4472;52.092;9.820;2023-01-30T06:39:45;9.27;;;6.60;;
8871;SDS011;4472;52.092;9.820;2023-01-30T06:42:32;9.87;;;7.13;;
8871;SDS011;4472;52.092;9.820;2023-01-30T06:45:19;8.03;;;6.23;;
8871;SDS011;4472;52.092;9.820;2023-01-30T06:48:06;8.73;;;6.50;;
8871;SDS011;4472;52.092;9.820;2023-01-30T06:50:54;6.13;;;4.90;;
8871;SDS011;4472;52.092;9.820;2023-01-30T06:53:41;5.80;;;5.10;;
8871;SDS011;4472;52.092;9.820;2023-01-30T06:56:29;4.83;;;4.33;;
8871;SDS011;4472;52.092;9.820;2023-01-30T06:59:17;4.97;;;4.47;;
8871;SDS011;4472;52.092;9.820;2023-01-30T07:02:04;5.70;;;4.07;;
8871;SDS011;4472;52.092;9.820;2023-01-30T07:04:51;5.63;;;4.30;;
8871;SDS011;4472;52.092;9.820;2023-01-30T07:07:38;8.80;;;4.60;;
8871;SDS011;4472;52.092;9.820;2023-01-30T07:10:25;6.53;;;4.40;;
8871;SDS011;4472;52.092;9.820;2023-01-30T07:13:14;6.47;;;5.07;;
8871;SDS011;4472;52.092;9.820;2023-01-30T07:16:02;7.97;;;6.00;;
8871;SDS011;4472;52.092;9.820;2023-01-30T07:18:51;7.90;;;5.37;;
8871;SDS011;4472;52.092;9.820;2023-01-30T07:21:38;8.47;;;5.87;;
8871;SDS011;4472;52.092;9.820;2023-01-30T07:24:25;7.30;;;5.30;;
8871;SDS011;4472;52.092;9.820;2023-01-30T07:27:12;9.67;;;4.90;;
8871;SDS011;4472;52.092;9.820;2023-01-30T07:30:01;8.43;;;5.43;;
8871;SDS011;4472;52.092;9.820;2023-01-30T07:32:49;7.10;;;5.43;;
8871;SDS011;4472;52.092;9.820;2023-01-30T07:35:36;6.97;;;4.60;;
8871;SDS011;4472;52.092;9.820;2023-01-30T07:38:24;8.60;;;5.10;;
8871;SDS011;4472;52.092;9.820;2023-01-30T07:41:11;7.23;;;4.30;;
8871;SDS011;4472;52.092;9.820;2023-01-30T07:43:58;13.43;;;4.57;;
8871;SDS011;4472;52.092;9.820;2023-01-30T07:46:47;10.27;;;4.07;;
8871;SDS011;4472;52.092;9.820;2023-01-30T07:49:34;10.00;;;3.80;;
8871;SDS011;4472;52.092;9.820;2023-01-30T07:52:21;15.47;;;4.60;;
8871;SDS011;4472;52.092;9.820;2023-01-30T07:55:09;13.63;;;4.40;;
8871;SDS011;4472;52.092;9.820;2023-01-30T07:57:56;6.43;;;3.20;;
8871;SDS011;4472;52.092;9.820;2023-01-30T08:00:43;14.00;;;4.10;;
8871;SDS011;4472;52.092;9.820;2023-01-30T08:03:31;8.53;;;3.20;;
8871;SDS011;4472;52.092;9.820;2023-01-30T08:06:19;16.40;;;4.43;;
8871;SDS011;4472;52.092;9.820;2023-01-30T08:09:06;14.17;;;3.80;;
8871;SDS011;4472;52.092;9.820;2023-01-30T08:11:53;10.30;;;3.13;;
8871;SDS011;4472;52.092;9.820;2023-01-30T08:14:40;12.13;;;3.70;;
8871;SDS011;4472;52.092;9.820;2023-01-30T08:17:27;13.97;;;3.67;;
8871;SDS011;4472;52.092;9.820;2023-01-30T08:20:16;7.80;;;3.07;;
8871;SDS011;4472;52.092;9.820;2023-01-30T08:23:03;12.73;;;3.47;;
8871;SDS011;4472;52.092;9.820;2023-01-30T08:25:53;13.33;;;3.50;;
8871;SDS011;4472;52.092;9.820;2023-01-30T08:28:40;9.87;;;3.00;;
8871;SDS011;4472;52.092;9.820;2023-01-30T08:31:27;10.47;;;2.73;;
8871;SDS011;4472;52.092;9.820;2023-01-30T08:34:15;13.63;;;3.67;;
8871;SDS011;4472;52.092;9.820;2023-01-30T08:37:03;20.00;;;3.70;;
8871;SDS011;4472;52.092;9.820;2023-01-30T08:39:50;17.90;;;2.70;;
8871;SDS011;4472;52.092;9.820;2023-01-30T08:42:37;10.87;;;3.17;;
8871;SDS011;4472;52.092;9.820;2023-01-30T08:45:25;19.67;;;3.73;;
8871;SDS011;4472;52.092;9.820;2023-01-30T08:48:12;9.60;;;2.90;;
8871;SDS011;4472;52.092;9.820;2023-01-30T08:50:59;13.97;;;3.60;;
8871;SDS011;4472;52.092;9.820;2023-01-30T08:53:48;9.70;;;3.10;;
8871;SDS011;4472;52.092;9.820;2023-01-30T08:56:35;11.93;;;3.60;;
8871;SDS011;4472;52.092;9.820;2023-01-30T08:59:22;11.30;;;4.03;;
8871;SDS011;4472;52.092;9.820;2023-01-30T09:02:09;11.53;;;3.07;;
8871;SDS011;4472;52.092;9.820;2023-01-30T09:04:57;11.40;;;2.93;;
8871;SDS011;4472;52.092;9.820;2023-01-30T09:07:44;15.20;;;3.73;;
8871;SDS011;4472;52.092;9.820;2023-01-30T09:10:33;15.67;;;2.87;;
8871;SDS011;4472;52.092;9.820;2023-01-30T09:13:20;11.67;;;3.40;;
8871;SDS011;4472;52.092;9.820;2023-01-30T09:16:07;8.23;;;2.67;;
8871;SDS011;4472;52.092;9.820;2023-01-30T09:18:55;12.17;;;3.27;;
8871;SDS011;4472;52.092;9.820;2023-01-30T09:21:42;12.03;;;3.77;;
8871;SDS011;4472;52.092;9.820;2023-01-30T09:24:30;16.77;;;3.30;;
8871;SDS011;4472;52.092;9.820;2023-01-30T09:27:18;13.33;;;3.03;;
8871;SDS011;4472;52.092;9.820;2023-01-30T09:30:06;8.23;;;2.80;;
8871;SDS011;4472;52.092;9.820;2023-01-30T09:32:54;12.60;;;3.23;;
8871;SDS011;4472;52.092;9.820;2023-01-30T09:35:41;15.63;;;3.80;;
8871;SDS011;4472;52.092;9.820;2023-01-30T09:38:28;13.40;;;3.27;;
8871;SDS011;4472;52.092;9.820;2023-01-30T09:41:25;8.80;;;2.47;;
8871;SDS011;4472;52.092;9.820;2023-01-30T09:44:41;12.90;;;2.77;;
8871;SDS011;4472;52.092;9.820;2023-01-30T09:47:43;16.53;;;2.80;;
8871;SDS011;4472;52.092;9.820;2023-01-30T09:50:38;14.00;;;3.27;;
8871;SDS011;4472;52.092;9.820;2023-01-30T09:53:38;15.50;;;2.80;;
8871;SDS011;4472;52.092;9.820;2023-01-30T09:56:35;17.97;;;3.37;;
8871;SDS011;4472;52.092;9.820;2023-01-30T09:59:24;17.37;;;3.23;;
8871;SDS011;4472;52.092;9.820;2023-01-30T10:02:23;16.27;;;3.33;;
8871;SDS011;4472;52.092;9.820;2023-01-30T10:05:24;16.53;;;3.30;;
8871;SDS011;4472;52.092;9.820;2023-01-30T10:08:25;16.57;;;3.47;;
8871;SDS011;4472;52.092;9.820;2023-01-30T10:11:34;15.07;;;2.83;;
8871;SDS011;4472;52.092;9.820;2023-01-30T10:14:33;13.23;;;3.23;;
8871;SDS011;4472;52.092;9.820;2023-01-30T10:17:41;9.67;;;2.83;;
8871;SDS011;4472;52.092;9.820;2023-01-30T10:20:46;16.73;;;3.87;;
8871;SDS011;4472;52.092;9.820;2023-01-30T10:23:41;11.33;;;2.90;;
8871;SDS011;4472;52.092;9.820;2023-01-30T10:26:38;13.53;;;3.10;;
8871;SDS011;4472;52.092;9.820;2023-01-30T10:29:29;13.57;;;3.27;;
8871;SDS011;4472;52.092;9.820;2023-01-30T10:32:19;13.47;;;3.20;;
8871;SDS011;4472;52.092;9.820;2023-01-30T10:35:16;13.60;;;3.13;;
8871;SDS011;4472;52.092;9.820;2023-01-30T10:38:10;12.70;;;3.43;;
8871;SDS011;4472;52.092;9.820;2023-01-30T10:41:04;16.60;;;3.00;;
8871;SDS011;4472;52.092;9.820;2023-01-30T10:43:58;11.47;;;2.63;;
8871;SDS011;4472;52.092;9.820;2023-01-30T10:46:58;13.87;;;3.07;;
8871;SDS011;4472;52.092;9.820;2023-01-30T10:50:11;9.87;;;3.37;;
8871;SDS011;4472;52.092;9.820;2023-01-30T10:53:03;10.07;;;2.90;;
8871;SDS011;4472;52.092;9.820;2023-01-30T10:56:00;12.67;;;3.13;;
8871;SDS011;4472;52.092;9.820;2023-01-30T10:58:56;13.00;;;3.23;;
8871;SDS011;4472;52.092;9.820;2023-01-30T11:01:56;15.63;;;3.60;;
8871;SDS011;4472;52.092;9.820;2023-01-30T11:04:47;12.77;;;3.73;;
8871;SDS011;4472;52.092;9.820;2023-01-30T11:07:42;17.77;;;3.67;;
8871;SDS011;4472;52.092;9.820;2023-01-30T11:10:32;19.00;;;3.40;;
8871;SDS011;4472;52.092;9.820;2023-01-30T11:13:20;21.07;;;3.77;;
8871;SDS011;4472;52.092;9.820;2023-01-30T11:16:10;16.10;;;3.33;;
8871;SDS011;4472;52.092;9.820;2023-01-30T11:18:58;14.80;;;2.93;;
8871;SDS011;4472;52.092;9.820;2023-01-30T11:21:51;6.43;;;2.20;;
8871;SDS011;4472;52.092;9.820;2023-01-30T11:24:42;15.13;;;3.03;;
8871;SDS011;4472;52.092;9.820;2023-01-30T11:27:32;8.57;;;2.73;;
8871;SDS011;4472;52.092;9.820;2023-01-30T11:30:23;15.00;;;3.27;;
8871;SDS011;4472;52.092;9.820;2023-01-30T11:33:15;12.67;;;3.20;;
8871;SDS011;4472;52.092;9.820;2023-01-30T11:36:06;18.53;;;3.40;;
8871;SDS011;4472;52.092;9.820;2023-01-30T11:39:17;11.77;;;3.40;;
8871;SDS011;4472;52.092;9.820;2023-01-30T11:42:09;19.17;;;3.40;;
8871;SDS011;4472;52.092;9.820;2023-01-30T11:44:58;15.13;;;2.93;;
8871;SDS011;4472;52.092;9.820;2023-01-30T11:47:47;15.23;;;3.57;;
8871;SDS011;4472;52.092;9.820;2023-01-30T11:50:38;18.27;;;3.70;;
8871;SDS011;4472;52.092;9.820;2023-01-30T11:53:29;18.63;;;3.60;;
8871;SDS011;4472;52.092;9.820;2023-01-30T11:56:22;13.30;;;3.33;;
8871;SDS011;4472;52.092;9.820;2023-01-30T11:59:20;14.87;;;4.17;;
8871;SDS011;4472;52.092;9.820;2023-01-30T12:02:15;14.73;;;3.13;;
8871;SDS011;4472;52.092;9.820;2023-01-30T12:05:07;16.30;;;3.70;;
8871;SDS011;4472;52.092;9.820;2023-01-30T12:08:11;12.60;;;3.00;;
8871;SDS011;4472;52.092;9.820;2023-01-30T12:11:22;17.37;;;4.00;;
8871;SDS011;4472;52.092;9.820;2023-01-30T12:14:15;20.30;;;4.00;;
8871;SDS011;4472;52.092;9.820;2023-01-30T12:17:13;13.10;;;3.30;;
8871;SDS011;4472;52.092;9.820;2023-01-30T12:20:10;16.77;;;4.07;;
8871;SDS011;4472;52.092;9.820;2023-01-30T12:23:04;15.53;;;3.27;;
8871;SDS011;4472;52.092;9.820;2023-01-30T12:26:00;14.83;;;3.27;;
8871;SDS011;4472;52.092;9.820;2023-01-30T12:28:51;11.37;;;2.90;;
8871;SDS011;4472;52.092;9.820;2023-01-30T12:31:43;13.90;;;3.07;;
8871;SDS011;4472;52.092;9.820;2023-01-30T12:34:37;11.57;;;3.13;;
8871;SDS011;4472;52.092;9.820;2023-01-30T12:37:37;11.20;;;2.80;;
8871;SDS011;4472;52.092;9.820;2023-01-30T12:40:41;14.80;;;4.03;;
8871;SDS011;4472;52.092;9.820;2023-01-30T12:43:40;16.23;;;3.53;;
8871;SDS011;4472;52.092;9.820;2023-01-30T12:46:45;13.00;;;3.10;;
8871;SDS011;4472;52.092;9.820;2023-01-30T12:49:51;12.63;;;3.00;;
8871;SDS011;4472;52.092;9.820;2023-01-30T12:56:15;12.03;;;2.60;;
8871;SDS011;4472;52.092;9.820;2023-01-30T12:59:13;12.27;;;2.90;;
8871;SDS011;4472;52.092;9.820;2023-01-30T13:02:15;9.07;;;2.50;;
8871;SDS011;4472;52.092;9.820;2023-01-30T13:05:19;5.83;;;2.40;;
8871;SDS011;4472;52.092;9.820;2023-01-30T13:11:40;8.60;;;2.37;;
8871;SDS011;4472;52.092;9.820;2023-01-30T13:14:35;11.97;;;2.87;;
8871;SDS011;4472;52.092;9.820;2023-01-30T13:17:31;11.17;;;3.43;;
8871;SDS011;4472;52.092;9.820;2023-01-30T13:20:35;12.23;;;2.53;;
8871;SDS011;4472;52.092;9.820;2023-01-30T13:23:36;12.37;;;2.67;;
8871;SDS011;4472;52.092;9.820;2023-01-30T13:26:33;8.90;;;2.60;;
8871;SDS011;4472;52.092;9.820;2023-01-30T13:29:23;5.40;;;2.57;;
8871;SDS011;4472;52.092;9.820;2023-01-30T13:32:18;7.17;;;2.30;;
8871;SDS011;4472;52.092;9.820;2023-01-30T13:35:14;10.57;;;2.97;;
8871;SDS011;4472;52.092;9.820;2023-01-30T13:38:06;10.27;;;2.87;;
8871;SDS011;4472;52.092;9.820;2023-01-30T13:40:57;11.00;;;2.53;;
8871;SDS011;4472;52.092;9.820;2023-01-30T13:43:47;11.10;;;3.00;;
8871;SDS011;4472;52.092;9.820;2023-01-30T13:46:38;7.17;;;2.97;;
8871;SDS011;4472;52.092;9.820;2023-01-30T13:49:32;10.93;;;2.90;;
8871;SDS011;4472;52.092;9.820;2023-01-30T13:52:28;8.13;;;2.60;;
8871;SDS011;4472;52.092;9.820;2023-01-30T13:55:28;13.20;;;3.27;;
8871;SDS011;4472;52.092;9.820;2023-01-30T13:58:27;11.37;;;3.23;;
8871;SDS011;4472;52.092;9.820;2023-01-30T14:04:49;13.07;;;2.67;;
8871;SDS011;4472;52.092;9.820;2023-01-30T14:07:38;13.20;;;3.00;;
8871;SDS011;4472;52.092;9.820;2023-01-30T14:10:29;10.10;;;3.10;;
8871;SDS011;4472;52.092;9.820;2023-01-30T14:13:20;11.03;;;2.97;;
8871;SDS011;4472;52.092;9.820;2023-01-30T14:16:09;11.03;;;2.80;;
8871;SDS011;4472;52.092;9.820;2023-01-30T14:18:56;9.40;;;2.87;;
8871;SDS011;4472;52.092;9.820;2023-01-30T14:21:52;8.53;;;2.67;;
8871;SDS011;4472;52.092;9.820;2023-01-30T14:24:40;13.97;;;2.83;;
8871;SDS011;4472;52.092;9.820;2023-01-30T14:27:29;7.87;;;2.70;;
8871;SDS011;4472;52.092;9.820;2023-01-30T14:30:34;8.10;;;2.90;;
8871;SDS011;4472;52.092;9.820;2023-01-30T14:33:32;7.80;;;2.67;;
8871;SDS011;4472;52.092;9.820;2023-01-30T14:36:33;10.00;;;2.93;;
8871;SDS011;4472;52.092;9.820;2023-01-30T14:42:35;10.83;;;2.80;;
8871;SDS011;4472;52.092;9.820;2023-01-30T14:45:31;9.43;;;2.80;;
8871;SDS011;4472;52.092;9.820;2023-01-30T14:48:33;8.63;;;2.40;;
8871;SDS011;4472;52.092;9.820;2023-01-30T14:51:25;8.07;;;2.87;;
8871;SDS011;4472;52.092;9.820;2023-01-30T14:54:19;12.17;;;2.80;;
8871;SDS011;4472;52.092;9.820;2023-01-30T14:57:15;11.33;;;3.00;;
8871;SDS011;4472;52.092;9.820;2023-01-30T15:00:13;11.23;;;2.27;;
8871;SDS011;4472;52.092;9.820;2023-01-30T15:03:03;15.00;;;3.30;;
8871;SDS011;4472;52.092;9.820;2023-01-30T15:05:57;11.50;;;2.60;;
8871;SDS011;4472;52.092;9.820;2023-01-30T15:08:45;12.07;;;2.70;;
8871;SDS011;4472;52.092;9.820;2023-01-30T15:11:33;13.73;;;3.33;;
8871;SDS011;4472;52.092;9.820;2023-01-30T15:14:21;11.17;;;3.20;;
8871;SDS011;4472;52.092;9.820;2023-01-30T15:17:17;17.77;;;3.20;;
8871;SDS011;4472;52.092;9.820;2023-01-30T15:20:19;14.23;;;3.17;;
8871;SDS011;4472;52.092;9.820;2023-01-30T15:23:23;17.20;;;3.33;;
8871;SDS011;4472;52.092;9.820;2023-01-30T15:26:38;13.20;;;3.53;;
8871;SDS011;4472;52.092;9.820;2023-01-30T15:29:48;17.47;;;3.57;;
8871;SDS011;4472;52.092;9.820;2023-01-30T15:32:48;11.37;;;2.97;;
8871;SDS011;4472;52.092;9.820;2023-01-30T15:35:35;19.63;;;3.60;;
8871;SDS011;4472;52.092;9.820;2023-01-30T15:38:24;14.53;;;3.47;;
8871;SDS011;4472;52.092;9.820;2023-01-30T15:41:13;16.07;;;3.60;;
8871;SDS011;4472;52.092;9.820;2023-01-30T15:50:46;8.83;;;3.17;;
8871;SDS011;4472;52.092;9.820;2023-01-30T15:53:35;11.43;;;2.83;;
8871;SDS011;4472;52.092;9.820;2023-01-30T15:56:27;20.33;;;4.47;;
8871;SDS011;4472;52.092;9.820;2023-01-30T15:59:24;13.00;;;3.43;;
8871;SDS011;4472;52.092;9.820;2023-01-30T16:02:23;13.37;;;3.60;;
8871;SDS011;4472;52.092;9.820;2023-01-30T16:05:19;14.83;;;3.80;;
8871;SDS011;4472;52.092;9.820;2023-01-30T16:08:08;18.07;;;3.87;;
8871;SDS011;4472;52.092;9.820;2023-01-30T16:11:05;10.97;;;2.33;;
8871;SDS011;4472;52.092;9.820;2023-01-30T16:13:52;13.37;;;3.20;;
8871;SDS011;4472;52.092;9.820;2023-01-30T16:16:46;18.23;;;3.73;;
8871;SDS011;4472;52.092;9.820;2023-01-30T16:19:39;15.57;;;3.30;;
8871;SDS011;4472;52.092;9.820;2023-01-30T16:22:28;16.43;;;3.13;;
8871;SDS011;4472;52.092;9.820;2023-01-30T16:25:20;15.20;;;3.60;;
8871;SDS011;4472;52.092;9.820;2023-01-30T16:28:10;9.40;;;2.70;;
8871;SDS011;4472;52.092;9.820;2023-01-30T16:30:58;11.53;;;2.83;;
8871;SDS011;4472;52.092;9.820;2023-01-30T16:33:48;19.10;;;3.73;;
8871;SDS011;4472;52.092;9.820;2023-01-30T16:36:39;12.93;;;3.30;;
8871;SDS011;4472;52.092;9.820;2023-01-30T16:39:29;16.67;;;2.70;;
8871;SDS011;4472;52.092;9.820;2023-01-30T16:42:19;8.30;;;2.87;;
8871;SDS011;4472;52.092;9.820;2023-01-30T16:45:19;14.73;;;3.00;;
8871;SDS011;4472;52.092;9.820;2023-01-30T16:48:47;10.73;;;2.87;;
8871;SDS011;4472;52.092;9.820;2023-01-30T16:51:35;21.90;;;3.30;;
8871;SDS011;4472;52.092;9.820;2023-01-30T16:54:23;16.90;;;3.93;;
8871;SDS011;4472;52.092;9.820;2023-01-30T16:57:24;19.33;;;4.00;;
8871;SDS011;4472;52.092;9.820;2023-01-30T17:00:18;16.20;;;3.37;;
8871;SDS011;4472;52.092;9.820;2023-01-30T17:03:17;12.93;;;3.10;;
8871;SDS011;4472;52.092;9.820;2023-01-30T17:06:17;13.80;;;3.17;;
8871;SDS011;4472;52.092;9.820;2023-01-30T17:09:30;19.30;;;3.40;;
8871;SDS011;4472;52.092;9.820;2023-01-30T17:12:35;12.50;;;3.27;;
8871;SDS011;4472;52.092;9.820;2023-01-30T17:15:30;18.37;;;3.40;;
8871;SDS011;4472;52.092;9.820;2023-01-30T17:18:19;16.97;;;3.57;;
8871;SDS011;4472;52.092;9.820;2023-01-30T17:21:09;21.57;;;3.80;;
8871;SDS011;4472;52.092;9.820;2023-01-30T17:24:00;19.03;;;3.37;;
8871;SDS011;4472;52.092;9.820;2023-01-30T17:26:49;15.33;;;3.13;;
8871;SDS011;4472;52.092;9.820;2023-01-30T17:29:45;16.00;;;3.27;;
8871;SDS011;4472;52.092;9.820;2023-01-30T17:32:36;16.83;;;3.67;;
8871;SDS011;4472;52.092;9.820;2023-01-30T17:35:23;17.30;;;4.67;;
8871;SDS011;4472;52.092;9.820;2023-01-30T17:38:11;12.73;;;3.50;;
8871;SDS011;4472;52.092;9.820;2023-01-30T17:41:01;12.43;;;3.03;;
8871;SDS011;4472;52.092;9.820;2023-01-30T17:43:48;14.00;;;4.27;;
8871;SDS011;4472;52.092;9.820;2023-01-30T17:46:38;11.03;;;2.90;;
8871;SDS011;4472;52.092;9.820;2023-01-30T17:49:26;18.73;;;3.30;;
8871;SDS011;4472;52.092;9.820;2023-01-30T17:52:13;14.03;;;3.77;;